KTOR/TOR METAR and TAF weather

Enter ICAO airport designator
Station Type Date Time Source
KTOR METAR 2021/09/16 21:53 UTC NOAA

KTOR 162153Z AUTO 28015G23KT 10SM CLR 33/01 A2975 RMK AO2 SLP024 T03330006


Station Type Date Time Source
KTOR Decoded METAR 2021/09/16 21:53 UTC NOAA

TORRINGTON MUNICIPAL AIRPORT, WY, United States (KTOR) 42-03N 104-09W 1277M
Sep 16, 2021 - 05:53 PM EDT / 2021.09.16 2153 UTC
Wind: from the W (280 degrees) at 17 MPH (15 KT) gusting to 26 MPH (23 KT):0
Visibility: 10 mile(s):0
Sky conditions: clear
Temperature: 91.9 F (33.3 C)
Dew Point: 33.1 F (0.6 C)
Relative Humidity: 12%
Pressure (altimeter): 29.75 in. Hg (1007 hPa)
ob: KTOR 162153Z AUTO 28015G23KT 10SM CLR 33/01 A2975 RMK AO2 SLP024 T03330006
cycle: 22

Station Type Date Time Source
KTOR TAF UTC NOAA

Error!

Example: see airport list